sensor_id;sensor_type;location;lat;lon;timestamp;temperature;humidity
5779;DHT22;2916;49.798;10.022;2022-12-20T00:01:08;-0.30;99.90
5779;DHT22;2916;49.798;10.022;2022-12-20T00:03:35;-0.30;99.90
5779;DHT22;2916;49.798;10.022;2022-12-20T00:06:03;-0.30;99.90
5779;DHT22;2916;49.798;10.022;2022-12-20T00:08:31;-0.30;99.90
5779;DHT22;2916;49.798;10.022;2022-12-20T00:11:01;-0.20;99.90
5779;DHT22;2916;49.798;10.022;2022-12-20T00:13:30;-0.20;99.90
5779;DHT22;2916;49.798;10.022;2022-12-20T00:16:05;-0.20;99.90
5779;DHT22;2916;49.798;10.022;2022-12-20T00:18:32;-0.20;99.90
5779;DHT22;2916;49.798;10.022;2022-12-20T00:21:00;-0.10;99.90
5779;DHT22;2916;49.798;10.022;2022-12-20T00:23:27;-0.10;99.90
5779;DHT22;2916;49.798;10.022;2022-12-20T00:26:01;0.00;99.90
5779;DHT22;2916;49.798;10.022;2022-12-20T00:28:28;0.00;99.90
5779;DHT22;2916;49.798;10.022;2022-12-20T00:30:55;0.00;99.90
5779;DHT22;2916;49.798;10.022;2022-12-20T00:33:22;0.10;99.90
5779;DHT22;2916;49.798;10.022;2022-12-20T00:35:49;0.00;99.90
5779;DHT22;2916;49.798;10.022;2022-12-20T00:38:17;0.10;99.90
5779;DHT22;2916;49.798;10.022;2022-12-20T00:40:44;0.00;99.90
5779;DHT22;2916;49.798;10.022;2022-12-20T00:43:12;0.10;99.90
5779;DHT22;2916;49.798;10.022;2022-12-20T00:45:39;0.20;99.90
5779;DHT22;2916;49.798;10.022;2022-12-20T00:48:06;0.20;99.90
5779;DHT22;2916;49.798;10.022;2022-12-20T00:50:33;0.20;99.90
5779;DHT22;2916;49.798;10.022;2022-12-20T00:53:00;0.20;99.90
5779;DHT22;2916;49.798;10.022;2022-12-20T00:55:27;0.30;99.90
5779;DHT22;2916;49.798;10.022;2022-12-20T00:57:55;0.30;99.90
5779;DHT22;2916;49.798;10.022;2022-12-20T01:00:23;0.30;99.90
5779;DHT22;2916;49.798;10.022;2022-12-20T01:02:50;0.30;99.90
5779;DHT22;2916;49.798;10.022;2022-12-20T01:05:17;0.30;99.90
5779;DHT22;2916;49.798;10.022;2022-12-20T01:07:44;0.40;99.90
5779;DHT22;2916;49.798;10.022;2022-12-20T01:10:11;0.40;99.90
5779;DHT22;2916;49.798;10.022;2022-12-20T01:12:38;0.40;99.90
5779;DHT22;2916;49.798;10.022;2022-12-20T01:15:06;0.50;99.90
5779;DHT22;2916;49.798;10.022;2022-12-20T01:17:35;0.50;99.90
5779;DHT22;2916;49.798;10.022;2022-12-20T01:20:03;0.60;99.90
5779;DHT22;2916;49.798;10.022;2022-12-20T01:22:30;0.50;99.90
5779;DHT22;2916;49.798;10.022;2022-12-20T01:24:57;0.50;99.90
5779;DHT22;2916;49.798;10.022;2022-12-20T01:27:24;0.50;99.90
5779;DHT22;2916;49.798;10.022;2022-12-20T01:29:50;0.60;99.90
5779;DHT22;2916;49.798;10.022;2022-12-20T01:32:17;0.60;99.90
5779;DHT22;2916;49.798;10.022;2022-12-20T01:34:46;0.60;99.90
5779;DHT22;2916;49.798;10.022;2022-12-20T01:37:13;0.50;99.90
5779;DHT22;2916;49.798;10.022;2022-12-20T01:39:40;0.50;99.90
5779;DHT22;2916;49.798;10.022;2022-12-20T01:42:11;0.60;99.90
5779;DHT22;2916;49.798;10.022;2022-12-20T01:44:57;0.70;99.90
5779;DHT22;2916;49.798;10.022;2022-12-20T01:47:24;0.70;99.90
5779;DHT22;2916;49.798;10.022;2022-12-20T01:49:56;0.70;99.90
5779;DHT22;2916;49.798;10.022;2022-12-20T01:52:28;0.80;99.90
5779;DHT22;2916;49.798;10.022;2022-12-20T01:55:01;0.80;99.90
5779;DHT22;2916;49.798;10.022;2022-12-20T01:57:34;0.70;99.90
5779;DHT22;2916;49.798;10.022;2022-12-20T02:00:03;0.70;99.90
5779;DHT22;2916;49.798;10.022;2022-12-20T02:02:31;0.70;99.90
5779;DHT22;2916;49.798;10.022;2022-12-20T02:04:59;0.80;99.90
5779;DHT22;2916;49.798;10.022;2022-12-20T02:07:29;0.90;99.90
5779;DHT22;2916;49.798;10.022;2022-12-20T02:09:58;0.90;99.90
5779;DHT22;2916;49.798;10.022;2022-12-20T02:12:30;0.90;99.90
5779;DHT22;2916;49.798;10.022;2022-12-20T02:15:24;0.90;99.90
5779;DHT22;2916;49.798;10.022;2022-12-20T02:18:04;1.00;99.90
5779;DHT22;2916;49.798;10.022;2022-12-20T02:27:24;0.90;99.90
5779;DHT22;2916;49.798;10.022;2022-12-20T02:30:11;1.00;99.90
5779;DHT22;2916;49.798;10.022;2022-12-20T02:32:46;1.00;99.90
5779;DHT22;2916;49.798;10.022;2022-12-20T02:35:18;1.00;99.90
5779;DHT22;2916;49.798;10.022;2022-12-20T02:37:48;1.00;99.90
5779;DHT22;2916;49.798;10.022;2022-12-20T02:40:17;1.00;99.90
5779;DHT22;2916;49.798;10.022;2022-12-20T02:42:46;1.10;99.90
5779;DHT22;2916;49.798;10.022;2022-12-20T02:45:15;1.00;99.90
5779;DHT22;2916;49.798;10.022;2022-12-20T02:47:47;1.00;99.90
5779;DHT22;2916;49.798;10.022;2022-12-20T02:50:17;1.00;99.90
5779;DHT22;2916;49.798;10.022;2022-12-20T02:52:45;1.00;99.90
5779;DHT22;2916;49.798;10.022;2022-12-20T02:55:13;1.10;99.90
5779;DHT22;2916;49.798;10.022;2022-12-20T02:57:44;1.10;99.90
5779;DHT22;2916;49.798;10.022;2022-12-20T03:00:17;1.00;99.90
5779;DHT22;2916;49.798;10.022;2022-12-20T03:02:44;1.10;99.90
5779;DHT22;2916;49.798;10.022;2022-12-20T03:05:31;1.10;99.90
5779;DHT22;2916;49.798;10.022;2022-12-20T03:07:59;1.10;99.90
5779;DHT22;2916;49.798;10.022;2022-12-20T03:10:26;1.10;99.90
5779;DHT22;2916;49.798;10.022;2022-12-20T03:12:53;1.10;99.90
5779;DHT22;2916;49.798;10.022;2022-12-20T03:15:21;1.10;99.90
5779;DHT22;2916;49.798;10.022;2022-12-20T03:17:48;1.20;99.90
5779;DHT22;2916;49.798;10.022;2022-12-20T03:20:15;1.10;99.90
5779;DHT22;2916;49.798;10.022;2022-12-20T03:22:42;1.10;99.90
5779;DHT22;2916;49.798;10.022;2022-12-20T03:25:09;1.00;99.90
5779;DHT22;2916;49.798;10.022;2022-12-20T03:27:36;1.10;99.90
5779;DHT22;2916;49.798;10.022;2022-12-20T03:30:04;1.00;99.90
5779;DHT22;2916;49.798;10.022;2022-12-20T03:32:33;1.10;99.90
5779;DHT22;2916;49.798;10.022;2022-12-20T03:35:00;1.00;99.90
5779;DHT22;2916;49.798;10.022;2022-12-20T03:37:27;1.00;99.90
5779;DHT22;2916;49.798;10.022;2022-12-20T03:39:54;1.00;99.90
5779;DHT22;2916;49.798;10.022;2022-12-20T03:42:21;1.10;99.90
5779;DHT22;2916;49.798;10.022;2022-12-20T03:44:48;1.10;99.90
5779;DHT22;2916;49.798;10.022;2022-12-20T03:47:14;1.20;99.90
5779;DHT22;2916;49.798;10.022;2022-12-20T03:49:43;1.20;99.90
5779;DHT22;2916;49.798;10.022;2022-12-20T03:52:11;1.20;99.90
5779;DHT22;2916;49.798;10.022;2022-12-20T03:54:38;1.10;99.90
5779;DHT22;2916;49.798;10.022;2022-12-20T03:57:05;1.20;99.90
5779;DHT22;2916;49.798;10.022;2022-12-20T03:59:32;1.20;99.90
5779;DHT22;2916;49.798;10.022;2022-12-20T04:02:00;1.10;99.90
5779;DHT22;2916;49.798;10.022;2022-12-20T04:04:27;1.00;99.90
5779;DHT22;2916;49.798;10.022;2022-12-20T04:06:55;1.00;99.90
5779;DHT22;2916;49.798;10.022;2022-12-20T04:09:22;1.10;99.90
5779;DHT22;2916;49.798;10.022;2022-12-20T04:11:49;1.10;99.90
5779;DHT22;2916;49.798;10.022;2022-12-20T04:14:16;1.20;99.90
5779;DHT22;2916;49.798;10.022;2022-12-20T04:16:43;1.20;99.90
5779;DHT22;2916;49.798;10.022;2022-12-20T04:19:10;1.20;99.90
5779;DHT22;2916;49.798;10.022;2022-12-20T04:21:37;1.10;99.90
5779;DHT22;2916;49.798;10.022;2022-12-20T04:24:06;1.10;99.90
5779;DHT22;2916;49.798;10.022;2022-12-20T04:26:34;1.30;99.90
5779;DHT22;2916;49.798;10.022;2022-12-20T04:29:01;1.30;99.90
5779;DHT22;2916;49.798;10.022;2022-12-20T04:31:28;1.30;99.90
5779;DHT22;2916;49.798;10.022;2022-12-20T04:33:55;1.40;99.90
5779;DHT22;2916;49.798;10.022;2022-12-20T04:36:21;1.40;99.90
5779;DHT22;2916;49.798;10.022;2022-12-20T04:38:48;1.30;99.90
5779;DHT22;2916;49.798;10.022;2022-12-20T04:41:17;1.30;99.90
5779;DHT22;2916;49.798;10.022;2022-12-20T04:43:49;1.30;99.90
5779;DHT22;2916;49.798;10.022;2022-12-20T04:46:17;1.30;99.90
5779;DHT22;2916;49.798;10.022;2022-12-20T04:48:44;1.30;99.90
5779;DHT22;2916;49.798;10.022;2022-12-20T04:51:11;1.20;99.90
5779;DHT22;2916;49.798;10.022;2022-12-20T04:53:38;1.20;99.90
5779;DHT22;2916;49.798;10.022;2022-12-20T04:56:15;1.30;99.90
5779;DHT22;2916;49.798;10.022;2022-12-20T04:58:44;1.30;99.90
5779;DHT22;2916;49.798;10.022;2022-12-20T05:01:12;1.30;99.90
5779;DHT22;2916;49.798;10.022;2022-12-20T05:03:39;1.30;99.90
5779;DHT22;2916;49.798;10.022;2022-12-20T05:06:07;1.40;99.90
5779;DHT22;2916;49.798;10.022;2022-12-20T05:08:35;1.50;99.90
5779;DHT22;2916;49.798;10.022;2022-12-20T05:11:03;1.50;99.90
5779;DHT22;2916;49.798;10.022;2022-12-20T05:13:30;1.50;99.90
5779;DHT22;2916;49.798;10.022;2022-12-20T05:15:59;1.50;99.90
5779;DHT22;2916;49.798;10.022;2022-12-20T05:18:26;1.50;99.90
5779;DHT22;2916;49.798;10.022;2022-12-20T05:20:57;1.50;99.90
5779;DHT22;2916;49.798;10.022;2022-12-20T05:23:41;1.50;99.90
5779;DHT22;2916;49.798;10.022;2022-12-20T05:26:27;1.60;99.90
5779;DHT22;2916;49.798;10.022;2022-12-20T05:28:54;1.60;99.90
5779;DHT22;2916;49.798;10.022;2022-12-20T05:31:23;1.60;99.90
5779;DHT22;2916;49.798;10.022;2022-12-20T05:33:50;1.60;99.90
5779;DHT22;2916;49.798;10.022;2022-12-20T05:36:17;1.50;99.90
5779;DHT22;2916;49.798;10.022;2022-12-20T05:38:44;1.70;99.90
5779;DHT22;2916;49.798;10.022;2022-12-20T05:41:11;1.70;99.90
5779;DHT22;2916;49.798;10.022;2022-12-20T05:43:38;1.70;99.90
5779;DHT22;2916;49.798;10.022;2022-12-20T05:46:05;1.60;99.90
5779;DHT22;2916;49.798;10.022;2022-12-20T05:48:33;1.70;99.90
5779;DHT22;2916;49.798;10.022;2022-12-20T05:51:00;1.70;99.90
5779;DHT22;2916;49.798;10.022;2022-12-20T05:53:28;1.70;99.90
5779;DHT22;2916;49.798;10.022;2022-12-20T05:55:54;1.60;99.90
5779;DHT22;2916;49.798;10.022;2022-12-20T05:58:21;1.70;99.90
5779;DHT22;2916;49.798;10.022;2022-12-20T06:00:48;1.70;99.90
5779;DHT22;2916;49.798;10.022;2022-12-20T06:03:15;1.70;99.90
5779;DHT22;2916;49.798;10.022;2022-12-20T06:05:44;1.70;99.90
5779;DHT22;2916;49.798;10.022;2022-12-20T06:08:12;1.60;99.90
5779;DHT22;2916;49.798;10.022;2022-12-20T06:10:40;1.60;99.90
5779;DHT22;2916;49.798;10.022;2022-12-20T06:13:08;1.70;99.90
5779;DHT22;2916;49.798;10.022;2022-12-20T06:15:35;1.60;99.90
5779;DHT22;2916;49.798;10.022;2022-12-20T06:18:03;1.60;99.90
5779;DHT22;2916;49.798;10.022;2022-12-20T06:20:30;1.60;99.90
5779;DHT22;2916;49.798;10.022;2022-12-20T06:22:59;1.70;99.90
5779;DHT22;2916;49.798;10.022;2022-12-20T06:25:26;1.70;99.90
5779;DHT22;2916;49.798;10.022;2022-12-20T06:27:53;1.70;99.90
5779;DHT22;2916;49.798;10.022;2022-12-20T06:30:21;1.60;99.90
5779;DHT22;2916;49.798;10.022;2022-12-20T06:32:48;1.50;99.90
5779;DHT22;2916;49.798;10.022;2022-12-20T06:35:15;1.60;99.90
5779;DHT22;2916;49.798;10.022;2022-12-20T06:37:42;1.50;99.90
5779;DHT22;2916;49.798;10.022;2022-12-20T06:40:12;1.40;99.90
5779;DHT22;2916;49.798;10.022;2022-12-20T06:42:39;1.50;99.90
5779;DHT22;2916;49.798;10.022;2022-12-20T06:45:07;1.50;99.90
5779;DHT22;2916;49.798;10.022;2022-12-20T06:47:35;1.60;99.90
5779;DHT22;2916;49.798;10.022;2022-12-20T06:50:02;1.40;99.90
5779;DHT22;2916;49.798;10.022;2022-12-20T06:52:30;1.40;99.90
5779;DHT22;2916;49.798;10.022;2022-12-20T06:54:57;1.50;99.90
5779;DHT22;2916;49.798;10.022;2022-12-20T06:57:25;1.50;99.90
5779;DHT22;2916;49.798;10.022;2022-12-20T06:59:52;1.40;99.90
5779;DHT22;2916;49.798;10.022;2022-12-20T07:02:19;1.40;99.90
5779;DHT22;2916;49.798;10.022;2022-12-20T07:04:46;1.50;99.90
5779;DHT22;2916;49.798;10.022;2022-12-20T07:07:13;1.50;99.90
5779;DHT22;2916;49.798;10.022;2022-12-20T07:09:41;1.50;99.90
5779;DHT22;2916;49.798;10.022;2022-12-20T07:12:09;1.60;99.90
5779;DHT22;2916;49.798;10.022;2022-12-20T07:14:37;1.50;99.90
5779;DHT22;2916;49.798;10.022;2022-12-20T07:17:04;1.60;99.90
5779;DHT22;2916;49.798;10.022;2022-12-20T07:19:32;1.60;99.90
5779;DHT22;2916;49.798;10.022;2022-12-20T07:21:59;1.60;99.90
5779;DHT22;2916;49.798;10.022;2022-12-20T07:24:25;1.50;99.90
5779;DHT22;2916;49.798;10.022;2022-12-20T07:26:52;1.50;99.90
5779;DHT22;2916;49.798;10.022;2022-12-20T07:29:19;1.60;99.90
5779;DHT22;2916;49.798;10.022;2022-12-20T07:31:47;1.60;99.90
5779;DHT22;2916;49.798;10.022;2022-12-20T07:34:14;1.70;99.90
5779;DHT22;2916;49.798;10.022;2022-12-20T07:36:41;1.70;99.90
5779;DHT22;2916;49.798;10.022;2022-12-20T07:39:08;1.70;99.90
5779;DHT22;2916;49.798;10.022;2022-12-20T07:41:35;1.70;99.90
5779;DHT22;2916;49.798;10.022;2022-12-20T07:44:02;1.70;99.90
5779;DHT22;2916;49.798;10.022;2022-12-20T07:46:29;1.70;99.90
5779;DHT22;2916;49.798;10.022;2022-12-20T07:48:57;1.70;99.90
5779;DHT22;2916;49.798;10.022;2022-12-20T07:51:27;1.70;99.90
5779;DHT22;2916;49.798;10.022;2022-12-20T07:53:59;1.80;99.90
5779;DHT22;2916;49.798;10.022;2022-12-20T07:56:27;1.70;99.90
5779;DHT22;2916;49.798;10.022;2022-12-20T07:58:58;1.70;99.90
5779;DHT22;2916;49.798;10.022;2022-12-20T08:01:27;1.80;99.90
5779;DHT22;2916;49.798;10.022;2022-12-20T08:04:01;1.80;99.90
5779;DHT22;2916;49.798;10.022;2022-12-20T08:06:30;1.80;99.90
5779;DHT22;2916;49.798;10.022;2022-12-20T08:09:01;1.80;99.90
5779;DHT22;2916;49.798;10.022;2022-12-20T08:11:29;1.80;99.90
5779;DHT22;2916;49.798;10.022;2022-12-20T08:13:56;1.80;99.90
5779;DHT22;2916;49.798;10.022;2022-12-20T08:16:24;1.90;99.90
5779;DHT22;2916;49.798;10.022;2022-12-20T08:18:50;1.90;99.90
5779;DHT22;2916;49.798;10.022;2022-12-20T08:21:19;1.80;99.90
5779;DHT22;2916;49.798;10.022;2022-12-20T08:23:46;1.80;99.90
5779;DHT22;2916;49.798;10.022;2022-12-20T08:26:13;1.80;99.90
5779;DHT22;2916;49.798;10.022;2022-12-20T08:28:39;1.70;99.90
5779;DHT22;2916;49.798;10.022;2022-12-20T08:31:08;1.70;99.90
5779;DHT22;2916;49.798;10.022;2022-12-20T08:33:35;1.70;99.90
5779;DHT22;2916;49.798;10.022;2022-12-20T08:36:05;1.80;99.90
5779;DHT22;2916;49.798;10.022;2022-12-20T08:38:34;1.90;99.90
5779;DHT22;2916;49.798;10.022;2022-12-20T08:41:02;1.90;99.90
5779;DHT22;2916;49.798;10.022;2022-12-20T08:43:30;2.00;99.90
5779;DHT22;2916;49.798;10.022;2022-12-20T08:45:57;1.90;99.90
5779;DHT22;2916;49.798;10.022;2022-12-20T08:48:26;2.00;99.90
5779;DHT22;2916;49.798;10.022;2022-12-20T08:50:59;1.90;99.90
5779;DHT22;2916;49.798;10.022;2022-12-20T08:53:26;1.90;99.90
5779;DHT22;2916;49.798;10.022;2022-12-20T08:56:02;2.00;99.90
5779;DHT22;2916;49.798;10.022;2022-12-20T08:58:29;1.90;99.90
5779;DHT22;2916;49.798;10.022;2022-12-20T09:00:58;1.80;99.90
5779;DHT22;2916;49.798;10.022;2022-12-20T09:03:29;1.70;99.90
5779;DHT22;2916;49.798;10.022;2022-12-20T09:05:57;1.70;99.90
5779;DHT22;2916;49.798;10.022;2022-12-20T09:08:25;1.70;99.90
5779;DHT22;2916;49.798;10.022;2022-12-20T09:10:52;1.70;99.90
5779;DHT22;2916;49.798;10.022;2022-12-20T09:13:20;1.80;99.90
5779;DHT22;2916;49.798;10.022;2022-12-20T09:15:47;1.70;99.90
5779;DHT22;2916;49.798;10.022;2022-12-20T09:18:14;1.80;99.90
5779;DHT22;2916;49.798;10.022;2022-12-20T09:20:42;1.90;99.90
5779;DHT22;2916;49.798;10.022;2022-12-20T09:23:10;2.00;99.90
5779;DHT22;2916;49.798;10.022;2022-12-20T09:25:37;2.10;99.90
5779;DHT22;2916;49.798;10.022;2022-12-20T09:28:04;2.10;99.90
5779;DHT22;2916;49.798;10.022;2022-12-20T09:30:33;2.10;99.90
5779;DHT22;2916;49.798;10.022;2022-12-20T09:33:00;2.20;99.90
5779;DHT22;2916;49.798;10.022;2022-12-20T09:35:27;2.20;99.90
5779;DHT22;2916;49.798;10.022;2022-12-20T09:37:54;2.30;99.90
5779;DHT22;2916;49.798;10.022;2022-12-20T09:40:24;2.20;99.90
5779;DHT22;2916;49.798;10.022;2022-12-20T09:42:52;2.30;99.90
5779;DHT22;2916;49.798;10.022;2022-12-20T09:45:24;2.40;99.90
5779;DHT22;2916;49.798;10.022;2022-12-20T09:47:53;2.40;99.90
5779;DHT22;2916;49.798;10.022;2022-12-20T09:50:25;2.40;99.90
5779;DHT22;2916;49.798;10.022;2022-12-20T09:53:01;2.50;99.90
5779;DHT22;2916;49.798;10.022;2022-12-20T09:55:39;2.50;99.90
5779;DHT22;2916;49.798;10.022;2022-12-20T09:58:23;2.40;99.90
5779;DHT22;2916;49.798;10.022;2022-12-20T10:00:53;2.50;99.90
5779;DHT22;2916;49.798;10.022;2022-12-20T10:03:23;2.60;99.90
5779;DHT22;2916;49.798;10.022;2022-12-20T10:05:53;2.70;99.90
5779;DHT22;2916;49.798;10.022;2022-12-20T10:08:41;2.70;99.90
5779;DHT22;2916;49.798;10.022;2022-12-20T10:11:15;2.60;99.90
5779;DHT22;2916;49.798;10.022;2022-12-20T10:13:56;2.70;99.90
5779;DHT22;2916;49.798;10.022;2022-12-20T10:16:35;2.80;99.90
5779;DHT22;2916;49.798;10.022;2022-12-20T10:19:27;2.80;99.90
5779;DHT22;2916;49.798;10.022;2022-12-20T10:22:03;2.80;99.90
5779;DHT22;2916;49.798;10.022;2022-12-20T10:24:33;2.90;99.90
5779;DHT22;2916;49.798;10.022;2022-12-20T10:27:08;2.70;99.90
5779;DHT22;2916;49.798;10.022;2022-12-20T10:29:37;2.80;99.90
5779;DHT22;2916;49.798;10.022;2022-12-20T10:32:10;2.90;99.90
5779;DHT22;2916;49.798;10.022;2022-12-20T10:34:40;2.80;99.90
5779;DHT22;2916;49.798;10.022;2022-12-20T10:37:13;2.70;99.90
5779;DHT22;2916;49.798;10.022;2022-12-20T10:39:42;2.60;99.90
5779;DHT22;2916;49.798;10.022;2022-12-20T10:42:35;2.60;99.90
5779;DHT22;2916;49.798;10.022;2022-12-20T10:45:04;2.60;99.90
5779;DHT22;2916;49.798;10.022;2022-12-20T10:47:39;2.60;99.90
5779;DHT22;2916;49.798;10.022;2022-12-20T10:50:13;2.60;99.90
5779;DHT22;2916;49.798;10.022;2022-12-20T10:52:40;2.60;99.90
5779;DHT22;2916;49.798;10.022;2022-12-20T10:55:32;2.60;99.90
5779;DHT22;2916;49.798;10.022;2022-12-20T10:58:03;2.60;99.90
5779;DHT22;2916;49.798;10.022;2022-12-20T11:00:32;2.70;99.90
5779;DHT22;2916;49.798;10.022;2022-12-20T11:03:11;2.70;99.90
5779;DHT22;2916;49.798;10.022;2022-12-20T11:05:39;2.80;99.90
5779;DHT22;2916;49.798;10.022;2022-12-20T11:08:12;2.80;99.90
5779;DHT22;2916;49.798;10.022;2022-12-20T11:10:40;2.80;99.90
5779;DHT22;2916;49.798;10.022;2022-12-20T11:13:19;2.80;99.90
5779;DHT22;2916;49.798;10.022;2022-12-20T11:15:48;2.90;99.90
5779;DHT22;2916;49.798;10.022;2022-12-20T11:18:21;2.80;99.90
5779;DHT22;2916;49.798;10.022;2022-12-20T11:20:56;2.80;99.90
5779;DHT22;2916;49.798;10.022;2022-12-20T11:23:31;2.80;99.90
5779;DHT22;2916;49.798;10.022;2022-12-20T11:26:17;2.90;99.90
5779;DHT22;2916;49.798;10.022;2022-12-20T11:29:02;2.90;99.90
5779;DHT22;2916;49.798;10.022;2022-12-20T11:31:41;3.00;99.90
5779;DHT22;2916;49.798;10.022;2022-12-20T11:34:18;3.00;99.90
5779;DHT22;2916;49.798;10.022;2022-12-20T11:37:04;3.10;99.90
5779;DHT22;2916;49.798;10.022;2022-12-20T11:39:42;3.20;99.90
5779;DHT22;2916;49.798;10.022;2022-12-20T11:42:16;3.10;99.90
5779;DHT22;2916;49.798;10.022;2022-12-20T11:44:54;3.20;99.90
5779;DHT22;2916;49.798;10.022;2022-12-20T11:47:47;3.20;99.90
5779;DHT22;2916;49.798;10.022;2022-12-20T11:50:41;3.10;99.90
5779;DHT22;2916;49.798;10.022;2022-12-20T11:53:17;3.10;99.90
5779;DHT22;2916;49.798;10.022;2022-12-20T11:55:48;3.10;99.90
5779;DHT22;2916;49.798;10.022;2022-12-20T11:58:20;3.20;99.90
5779;DHT22;2916;49.798;10.022;2022-12-20T12:00:53;3.10;99.90
5779;DHT22;2916;49.798;10.022;2022-12-20T12:03:25;3.10;99.90
5779;DHT22;2916;49.798;10.022;2022-12-20T12:05:56;3.20;99.90
5779;DHT22;2916;49.798;10.022;2022-12-20T12:08:33;3.30;99.90
5779;DHT22;2916;49.798;10.022;2022-12-20T12:11:11;3.20;99.90
5779;DHT22;2916;49.798;10.022;2022-12-20T12:13:41;3.20;99.90
5779;DHT22;2916;49.798;10.022;2022-12-20T12:16:12;3.20;99.90
5779;DHT22;2916;49.798;10.022;2022-12-20T12:18:42;3.20;99.90
5779;DHT22;2916;49.798;10.022;2022-12-20T12:21:15;3.20;99.90
5779;DHT22;2916;49.798;10.022;2022-12-20T12:23:56;3.20;99.90
5779;DHT22;2916;49.798;10.022;2022-12-20T12:26:27;3.20;99.90
5779;DHT22;2916;49.798;10.022;2022-12-20T12:28:56;3.20;99.90
5779;DHT22;2916;49.798;10.022;2022-12-20T12:31:28;3.20;99.90
5779;DHT22;2916;49.798;10.022;2022-12-20T12:34:07;3.20;99.90
5779;DHT22;2916;49.798;10.022;2022-12-20T12:36:54;3.10;99.90
5779;DHT22;2916;49.798;10.022;2022-12-20T12:40:00;3.10;99.90
5779;DHT22;2916;49.798;10.022;2022-12-20T12:45:43;3.20;99.90
5779;DHT22;2916;49.798;10.022;2022-12-20T12:48:17;3.10;99.90
5779;DHT22;2916;49.798;10.022;2022-12-20T12:50:47;3.10;99.90
5779;DHT22;2916;49.798;10.022;2022-12-20T12:53:16;3.10;99.90
5779;DHT22;2916;49.798;10.022;2022-12-20T12:55:48;3.10;99.90
5779;DHT22;2916;49.798;10.022;2022-12-20T12:58:37;3.10;99.90
5779;DHT22;2916;49.798;10.022;2022-12-20T13:01:07;3.10;99.90
5779;DHT22;2916;49.798;10.022;2022-12-20T13:07:02;3.20;99.90
5779;DHT22;2916;49.798;10.022;2022-12-20T13:09:40;3.30;99.90
5779;DHT22;2916;49.798;10.022;2022-12-20T13:16:03;3.40;99.90
5779;DHT22;2916;49.798;10.022;2022-12-20T13:18:31;3.40;99.90
5779;DHT22;2916;49.798;10.022;2022-12-20T13:21:34;3.40;99.90
5779;DHT22;2916;49.798;10.022;2022-12-20T13:27:01;3.30;99.90
5779;DHT22;2916;49.798;10.022;2022-12-20T13:29:33;3.20;99.90
5779;DHT22;2916;49.798;10.022;2022-12-20T13:32:03;3.20;99.90
5779;DHT22;2916;49.798;10.022;2022-12-20T13:34:55;3.10;99.90
5779;DHT22;2916;49.798;10.022;2022-12-20T13:37:27;3.20;99.90
5779;DHT22;2916;49.798;10.022;2022-12-20T13:39:55;3.20;99.90
5779;DHT22;2916;49.798;10.022;2022-12-20T13:42:32;3.20;99.90
5779;DHT22;2916;49.798;10.022;2022-12-20T13:45:02;3.10;99.90
5779;DHT22;2916;49.798;10.022;2022-12-20T13:47:52;3.10;99.90
5779;DHT22;2916;49.798;10.022;2022-12-20T13:50:32;3.10;99.90
5779;DHT22;2916;49.798;10.022;2022-12-20T13:53:00;3.10;99.90
5779;DHT22;2916;49.798;10.022;2022-12-20T13:55:38;3.10;99.90
5779;DHT22;2916;49.798;10.022;2022-12-20T13:58:12;3.10;99.90
5779;DHT22;2916;49.798;10.022;2022-12-20T14:00:40;3.10;99.90
5779;DHT22;2916;49.798;10.022;2022-12-20T14:03:18;3.10;99.90
5779;DHT22;2916;49.798;10.022;2022-12-20T14:05:47;3.10;99.90
5779;DHT22;2916;49.798;10.022;2022-12-20T14:08:16;3.10;99.90
5779;DHT22;2916;49.798;10.022;2022-12-20T14:10:44;3.20;99.90
5779;DHT22;2916;49.798;10.022;2022-12-20T14:13:20;3.20;99.90
5779;DHT22;2916;49.798;10.022;2022-12-20T14:15:48;3.30;99.90
5779;DHT22;2916;49.798;10.022;2022-12-20T14:18:18;3.20;99.90
5779;DHT22;2916;49.798;10.022;2022-12-20T14:20:48;3.30;99.90
5779;DHT22;2916;49.798;10.022;2022-12-20T14:23:18;3.30;99.90
5779;DHT22;2916;49.798;10.022;2022-12-20T14:25:48;3.40;99.90
5779;DHT22;2916;49.798;10.022;2022-12-20T14:28:23;3.40;99.90
5779;DHT22;2916;49.798;10.022;2022-12-20T14:30:52;3.40;99.90
5779;DHT22;2916;49.798;10.022;2022-12-20T14:33:26;3.50;99.90
5779;DHT22;2916;49.798;10.022;2022-12-20T14:35:54;3.40;99.90
5779;DHT22;2916;49.798;10.022;2022-12-20T14:38:22;3.40;99.90
5779;DHT22;2916;49.798;10.022;2022-12-20T14:40:50;3.50;99.90
5779;DHT22;2916;49.798;10.022;2022-12-20T14:43:24;3.50;99.90
5779;DHT22;2916;49.798;10.022;2022-12-20T14:46:07;3.50;99.90
5779;DHT22;2916;49.798;10.022;2022-12-20T14:48:38;3.50;99.90
5779;DHT22;2916;49.798;10.022;2022-12-20T14:51:05;3.50;99.90
5779;DHT22;2916;49.798;10.022;2022-12-20T14:53:32;3.50;99.90
5779;DHT22;2916;49.798;10.022;2022-12-20T14:56:00;3.40;99.90
5779;DHT22;2916;49.798;10.022;2022-12-20T14:58:29;3.30;99.90
5779;DHT22;2916;49.798;10.022;2022-12-20T15:00:58;3.20;99.90
5779;DHT22;2916;49.798;10.022;2022-12-20T15:03:27;3.20;99.90
5779;DHT22;2916;49.798;10.022;2022-12-20T15:05:56;3.40;99.90
5779;DHT22;2916;49.798;10.022;2022-12-20T15:08:25;3.40;99.90
5779;DHT22;2916;49.798;10.022;2022-12-20T15:10:58;3.40;99.90
5779;DHT22;2916;49.798;10.022;2022-12-20T15:13:31;3.40;99.90
5779;DHT22;2916;49.798;10.022;2022-12-20T15:16:00;3.30;99.90
5779;DHT22;2916;49.798;10.022;2022-12-20T15:18:29;3.40;99.90
5779;DHT22;2916;49.798;10.022;2022-12-20T15:21:14;3.30;99.90
5779;DHT22;2916;49.798;10.022;2022-12-20T15:23:44;3.30;99.90
5779;DHT22;2916;49.798;10.022;2022-12-20T15:26:14;3.20;99.90
5779;DHT22;2916;49.798;10.022;2022-12-20T15:28:41;3.30;99.90
5779;DHT22;2916;49.798;10.022;2022-12-20T15:31:09;3.20;99.90
5779;DHT22;2916;49.798;10.022;2022-12-20T15:33:38;3.30;99.90
5779;DHT22;2916;49.798;10.022;2022-12-20T15:36:16;3.30;99.90
5779;DHT22;2916;49.798;10.022;2022-12-20T15:38:43;3.30;99.90
5779;DHT22;2916;49.798;10.022;2022-12-20T15:41:18;3.20;99.90
5779;DHT22;2916;49.798;10.022;2022-12-20T15:43:45;3.20;99.90
5779;DHT22;2916;49.798;10.022;2022-12-20T15:46:13;3.10;99.90
5779;DHT22;2916;49.798;10.022;2022-12-20T15:48:40;3.10;99.90
5779;DHT22;2916;49.798;10.022;2022-12-20T15:51:15;3.10;99.90
5779;DHT22;2916;49.798;10.022;2022-12-20T15:53:45;3.20;99.90
5779;DHT22;2916;49.798;10.022;2022-12-20T15:56:18;3.20;99.90
5779;DHT22;2916;49.798;10.022;2022-12-20T15:58:46;3.20;99.90
5779;DHT22;2916;49.798;10.022;2022-12-20T16:01:17;3.20;99.90
5779;DHT22;2916;49.798;10.022;2022-12-20T16:03:45;3.20;99.90
5779;DHT22;2916;49.798;10.022;2022-12-20T16:06:14;3.00;99.90
5779;DHT22;2916;49.798;10.022;2022-12-20T16:08:41;3.00;99.90
5779;DHT22;2916;49.798;10.022;2022-12-20T16:11:16;3.00;99.90
5779;DHT22;2916;49.798;10.022;2022-12-20T16:13:45;2.90;99.90
5779;DHT22;2916;49.798;10.022;2022-12-20T16:16:15;3.00;99.90
5779;DHT22;2916;49.798;10.022;2022-12-20T16:18:44;3.00;99.90
5779;DHT22;2916;49.798;10.022;2022-12-20T16:21:15;3.00;99.90
5779;DHT22;2916;49.798;10.022;2022-12-20T16:23:43;3.00;99.90
5779;DHT22;2916;49.798;10.022;2022-12-20T16:26:12;3.00;99.90
5779;DHT22;2916;49.798;10.022;2022-12-20T16:28:41;3.00;99.90
5779;DHT22;2916;49.798;10.022;2022-12-20T16:31:10;3.10;99.90
5779;DHT22;2916;49.798;10.022;2022-12-20T16:33:38;3.10;99.90
5779;DHT22;2916;49.798;10.022;2022-12-20T16:36:08;3.00;99.90
5779;DHT22;2916;49.798;10.022;2022-12-20T16:38:37;3.00;99.90
5779;DHT22;2916;49.798;10.022;2022-12-20T16:41:11;3.00;99.90
5779;DHT22;2916;49.798;10.022;2022-12-20T16:43:39;3.00;99.90